sensor_id;sensor_type;location;lat;lon;timestamp;P1;durP1;ratioP1;P2;durP2;ratioP2
12758;SDS011;20944;47.048;15.390;2023-08-24T00:00:28;5.00;;;4.18;;
12758;SDS011;20944;47.048;15.390;2023-08-24T00:02:56;4.18;;;3.83;;
12758;SDS011;20944;47.048;15.390;2023-08-24T00:05:25;5.55;;;3.80;;
12758;SDS011;20944;47.048;15.390;2023-08-24T00:07:53;6.60;;;4.28;;
12758;SDS011;20944;47.048;15.390;2023-08-24T00:10:21;5.65;;;4.07;;
12758;SDS011;20944;47.048;15.390;2023-08-24T00:12:50;4.47;;;4.07;;
12758;SDS011;20944;47.048;15.390;2023-08-24T00:15:19;5.28;;;4.75;;
12758;SDS011;20944;47.048;15.390;2023-08-24T00:17:48;5.57;;;4.65;;
12758;SDS011;20944;47.048;15.390;2023-08-24T00:20:17;4.32;;;3.92;;
12758;SDS011;20944;47.048;15.390;2023-08-24T00:22:46;4.85;;;4.38;;
12758;SDS011;20944;47.048;15.390;2023-08-24T00:25:15;5.15;;;4.03;;
12758;SDS011;20944;47.048;15.390;2023-08-24T00:27:44;4.22;;;3.83;;
12758;SDS011;20944;47.048;15.390;2023-08-24T00:30:13;4.53;;;4.03;;
12758;SDS011;20944;47.048;15.390;2023-08-24T00:32:43;4.53;;;4.13;;
12758;SDS011;20944;47.048;15.390;2023-08-24T00:35:11;5.25;;;4.10;;
12758;SDS011;20944;47.048;15.390;2023-08-24T00:37:40;5.45;;;4.47;;
12758;SDS011;20944;47.048;15.390;2023-08-24T00:40:09;4.47;;;3.95;;
12758;SDS011;20944;47.048;15.390;2023-08-24T00:42:38;5.18;;;4.07;;
12758;SDS011;20944;47.048;15.390;2023-08-24T00:45:07;4.70;;;4.20;;
12758;SDS011;20944;47.048;15.390;2023-08-24T00:47:37;5.22;;;4.13;;
12758;SDS011;20944;47.048;15.390;2023-08-24T00:50:09;5.13;;;4.63;;
12758;SDS011;20944;47.048;15.390;2023-08-24T00:52:38;7.03;;;4.47;;
12758;SDS011;20944;47.048;15.390;2023-08-24T00:55:08;6.10;;;4.70;;
12758;SDS011;20944;47.048;15.390;2023-08-24T00:57:37;9.70;;;4.93;;
12758;SDS011;20944;47.048;15.390;2023-08-24T01:00:07;7.18;;;4.60;;
12758;SDS011;20944;47.048;15.390;2023-08-24T01:02:37;4.20;;;3.80;;
12758;SDS011;20944;47.048;15.390;2023-08-24T01:05:06;4.13;;;3.58;;
12758;SDS011;20944;47.048;15.390;2023-08-24T01:07:38;4.78;;;4.32;;
12758;SDS011;20944;47.048;15.390;2023-08-24T01:10:08;4.85;;;4.30;;
12758;SDS011;20944;47.048;15.390;2023-08-24T01:12:43;5.53;;;4.90;;
12758;SDS011;20944;47.048;15.390;2023-08-24T01:15:29;6.15;;;3.97;;
12758;SDS011;20944;47.048;15.390;2023-08-24T01:18:04;4.97;;;4.30;;
12758;SDS011;20944;47.048;15.390;2023-08-24T01:20:37;5.15;;;4.32;;
12758;SDS011;20944;47.048;15.390;2023-08-24T01:23:13;4.40;;;3.88;;
12758;SDS011;20944;47.048;15.390;2023-08-24T01:25:51;5.70;;;4.38;;
12758;SDS011;20944;47.048;15.390;2023-08-24T01:28:22;4.65;;;4.20;;
12758;SDS011;20944;47.048;15.390;2023-08-24T01:30:52;5.85;;;4.30;;
12758;SDS011;20944;47.048;15.390;2023-08-24T01:33:21;5.00;;;4.22;;
12758;SDS011;20944;47.048;15.390;2023-08-24T01:35:49;5.80;;;4.68;;
12758;SDS011;20944;47.048;15.390;2023-08-24T01:38:17;5.07;;;4.57;;
12758;SDS011;20944;47.048;15.390;2023-08-24T01:40:48;6.90;;;4.20;;
12758;SDS011;20944;47.048;15.390;2023-08-24T01:43:24;5.60;;;4.60;;
12758;SDS011;20944;47.048;15.390;2023-08-24T01:46:09;4.72;;;3.83;;
12758;SDS011;20944;47.048;15.390;2023-08-24T01:48:42;6.35;;;3.97;;
12758;SDS011;20944;47.048;15.390;2023-08-24T01:51:11;4.63;;;4.20;;
12758;SDS011;20944;47.048;15.390;2023-08-24T01:53:40;4.70;;;4.30;;
12758;SDS011;20944;47.048;15.390;2023-08-24T01:56:09;6.47;;;4.43;;
12758;SDS011;20944;47.048;15.390;2023-08-24T01:58:39;4.35;;;3.88;;
12758;SDS011;20944;47.048;15.390;2023-08-24T02:01:07;5.00;;;3.67;;
12758;SDS011;20944;47.048;15.390;2023-08-24T02:03:37;6.00;;;4.30;;
12758;SDS011;20944;47.048;15.390;2023-08-24T02:06:07;6.13;;;4.47;;
12758;SDS011;20944;47.048;15.390;2023-08-24T02:08:35;6.78;;;4.65;;
12758;SDS011;20944;47.048;15.390;2023-08-24T02:11:04;5.90;;;4.38;;
12758;SDS011;20944;47.048;15.390;2023-08-24T02:13:32;5.45;;;4.55;;
12758;SDS011;20944;47.048;15.390;2023-08-24T02:16:02;5.57;;;4.47;;
12758;SDS011;20944;47.048;15.390;2023-08-24T02:18:31;5.03;;;4.30;;
12758;SDS011;20944;47.048;15.390;2023-08-24T02:21:00;5.57;;;4.28;;
12758;SDS011;20944;47.048;15.390;2023-08-24T02:23:34;5.50;;;4.68;;
12758;SDS011;20944;47.048;15.390;2023-08-24T02:26:02;4.28;;;3.88;;
12758;SDS011;20944;47.048;15.390;2023-08-24T02:28:30;6.03;;;4.72;;
12758;SDS011;20944;47.048;15.390;2023-08-24T02:31:00;5.38;;;4.45;;
12758;SDS011;20944;47.048;15.390;2023-08-24T02:33:30;5.53;;;4.50;;
12758;SDS011;20944;47.048;15.390;2023-08-24T02:35:59;6.45;;;4.60;;
12758;SDS011;20944;47.048;15.390;2023-08-24T02:38:28;5.78;;;4.80;;
12758;SDS011;20944;47.048;15.390;2023-08-24T02:41:03;5.97;;;4.13;;
12758;SDS011;20944;47.048;15.390;2023-08-24T02:43:32;6.05;;;4.47;;
12758;SDS011;20944;47.048;15.390;2023-08-24T02:46:00;6.13;;;4.78;;
12758;SDS011;20944;47.048;15.390;2023-08-24T02:48:32;5.97;;;4.63;;
12758;SDS011;20944;47.048;15.390;2023-08-24T02:51:02;10.80;;;4.93;;
12758;SDS011;20944;47.048;15.390;2023-08-24T02:53:31;4.78;;;4.28;;
12758;SDS011;20944;47.048;15.390;2023-08-24T02:55:59;5.70;;;4.65;;
12758;SDS011;20944;47.048;15.390;2023-08-24T02:58:28;4.85;;;4.45;;
12758;SDS011;20944;47.048;15.390;2023-08-24T03:00:57;5.63;;;4.95;;
12758;SDS011;20944;47.048;15.390;2023-08-24T03:03:25;6.07;;;4.40;;
12758;SDS011;20944;47.048;15.390;2023-08-24T03:05:57;5.82;;;4.82;;
12758;SDS011;20944;47.048;15.390;2023-08-24T03:08:26;4.72;;;4.22;;
12758;SDS011;20944;47.048;15.390;2023-08-24T03:10:54;8.70;;;4.90;;
12758;SDS011;20944;47.048;15.390;2023-08-24T03:13:23;6.03;;;4.63;;
12758;SDS011;20944;47.048;15.390;2023-08-24T03:15:51;6.18;;;5.20;;
12758;SDS011;20944;47.048;15.390;2023-08-24T03:18:19;5.97;;;4.68;;
12758;SDS011;20944;47.048;15.390;2023-08-24T03:20:48;7.82;;;4.43;;
12758;SDS011;20944;47.048;15.390;2023-08-24T03:23:18;9.57;;;4.38;;
12758;SDS011;20944;47.048;15.390;2023-08-24T03:25:46;4.72;;;4.22;;
12758;SDS011;20944;47.048;15.390;2023-08-24T03:28:15;7.35;;;4.65;;
12758;SDS011;20944;47.048;15.390;2023-08-24T03:30:45;6.03;;;4.35;;
12758;SDS011;20944;47.048;15.390;2023-08-24T03:33:15;5.05;;;4.47;;
12758;SDS011;20944;47.048;15.390;2023-08-24T03:35:43;7.05;;;4.88;;
12758;SDS011;20944;47.048;15.390;2023-08-24T03:38:11;6.28;;;4.45;;
12758;SDS011;20944;47.048;15.390;2023-08-24T03:40:41;5.03;;;4.53;;
12758;SDS011;20944;47.048;15.390;2023-08-24T03:43:10;6.35;;;4.85;;
12758;SDS011;20944;47.048;15.390;2023-08-24T03:45:38;6.63;;;4.55;;
12758;SDS011;20944;47.048;15.390;2023-08-24T03:48:07;4.68;;;4.18;;
12758;SDS011;20944;47.048;15.390;2023-08-24T03:50:35;6.68;;;4.10;;
12758;SDS011;20944;47.048;15.390;2023-08-24T03:53:04;5.40;;;3.92;;
12758;SDS011;20944;47.048;15.390;2023-08-24T03:55:34;6.57;;;4.93;;
12758;SDS011;20944;47.048;15.390;2023-08-24T03:58:03;6.88;;;4.72;;
12758;SDS011;20944;47.048;15.390;2023-08-24T04:00:32;6.18;;;4.57;;
12758;SDS011;20944;47.048;15.390;2023-08-24T04:03:00;7.03;;;4.57;;
12758;SDS011;20944;47.048;15.390;2023-08-24T04:05:29;7.68;;;4.72;;
12758;SDS011;20944;47.048;15.390;2023-08-24T04:07:58;7.63;;;4.70;;
12758;SDS011;20944;47.048;15.390;2023-08-24T04:10:27;5.93;;;4.60;;
12758;SDS011;20944;47.048;15.390;2023-08-24T04:12:56;5.88;;;4.68;;
12758;SDS011;20944;47.048;15.390;2023-08-24T04:15:26;5.65;;;4.50;;
12758;SDS011;20944;47.048;15.390;2023-08-24T04:17:54;4.88;;;4.30;;
12758;SDS011;20944;47.048;15.390;2023-08-24T04:20:23;6.28;;;4.57;;
12758;SDS011;20944;47.048;15.390;2023-08-24T04:22:52;5.47;;;4.72;;
12758;SDS011;20944;47.048;15.390;2023-08-24T04:25:20;4.68;;;4.15;;
12758;SDS011;20944;47.048;15.390;2023-08-24T04:27:48;5.15;;;4.65;;
12758;SDS011;20944;47.048;15.390;2023-08-24T04:30:17;4.97;;;4.40;;
12758;SDS011;20944;47.048;15.390;2023-08-24T04:32:47;5.93;;;4.85;;
12758;SDS011;20944;47.048;15.390;2023-08-24T04:35:15;5.28;;;4.75;;
12758;SDS011;20944;47.048;15.390;2023-08-24T04:37:44;8.38;;;5.10;;
12758;SDS011;20944;47.048;15.390;2023-08-24T04:40:12;7.55;;;4.80;;
12758;SDS011;20944;47.048;15.390;2023-08-24T04:42:40;6.72;;;4.50;;
12758;SDS011;20944;47.048;15.390;2023-08-24T04:45:09;5.22;;;4.57;;
12758;SDS011;20944;47.048;15.390;2023-08-24T04:47:37;6.07;;;4.95;;
12758;SDS011;20944;47.048;15.390;2023-08-24T04:50:08;6.63;;;4.95;;
12758;SDS011;20944;47.048;15.390;2023-08-24T04:52:36;6.28;;;5.05;;
12758;SDS011;20944;47.048;15.390;2023-08-24T04:55:05;5.15;;;4.32;;
12758;SDS011;20944;47.048;15.390;2023-08-24T04:57:35;5.25;;;4.75;;
12758;SDS011;20944;47.048;15.390;2023-08-24T05:00:04;5.22;;;4.45;;
12758;SDS011;20944;47.048;15.390;2023-08-24T05:02:33;5.60;;;4.85;;
12758;SDS011;20944;47.048;15.390;2023-08-24T05:05:01;5.03;;;4.63;;
12758;SDS011;20944;47.048;15.390;2023-08-24T05:07:31;7.43;;;5.43;;
12758;SDS011;20944;47.048;15.390;2023-08-24T05:09:59;7.57;;;5.18;;
12758;SDS011;20944;47.048;15.390;2023-08-24T05:12:29;7.93;;;5.68;;
12758;SDS011;20944;47.048;15.390;2023-08-24T05:15:00;6.70;;;5.18;;
12758;SDS011;20944;47.048;15.390;2023-08-24T05:17:28;7.25;;;5.72;;
12758;SDS011;20944;47.048;15.390;2023-08-24T05:19:58;6.55;;;5.28;;
12758;SDS011;20944;47.048;15.390;2023-08-24T05:22:27;6.63;;;4.72;;
12758;SDS011;20944;47.048;15.390;2023-08-24T05:24:57;7.05;;;5.22;;
12758;SDS011;20944;47.048;15.390;2023-08-24T05:27:25;11.10;;;5.30;;
12758;SDS011;20944;47.048;15.390;2023-08-24T05:29:53;6.00;;;5.20;;
12758;SDS011;20944;47.048;15.390;2023-08-24T05:32:21;5.70;;;5.20;;
12758;SDS011;20944;47.048;15.390;2023-08-24T05:34:50;6.10;;;5.20;;
12758;SDS011;20944;47.048;15.390;2023-08-24T05:37:18;7.40;;;5.50;;
12758;SDS011;20944;47.048;15.390;2023-08-24T05:39:47;6.43;;;5.70;;
12758;SDS011;20944;47.048;15.390;2023-08-24T05:42:16;9.10;;;5.45;;
12758;SDS011;20944;47.048;15.390;2023-08-24T05:44:45;11.30;;;5.82;;
12758;SDS011;20944;47.048;15.390;2023-08-24T05:47:13;7.20;;;5.28;;
12758;SDS011;20944;47.048;15.390;2023-08-24T05:49:41;7.85;;;5.40;;
12758;SDS011;20944;47.048;15.390;2023-08-24T05:52:10;5.22;;;4.70;;
12758;SDS011;20944;47.048;15.390;2023-08-24T05:54:39;5.68;;;4.55;;
12758;SDS011;20944;47.048;15.390;2023-08-24T05:57:07;6.65;;;5.30;;
12758;SDS011;20944;47.048;15.390;2023-08-24T05:59:37;7.55;;;5.78;;
12758;SDS011;20944;47.048;15.390;2023-08-24T06:02:05;6.13;;;5.03;;
12758;SDS011;20944;47.048;15.390;2023-08-24T06:04:34;9.10;;;5.88;;
12758;SDS011;20944;47.048;15.390;2023-08-24T06:07:02;9.70;;;5.20;;
12758;SDS011;20944;47.048;15.390;2023-08-24T06:09:31;5.63;;;4.72;;
12758;SDS011;20944;47.048;15.390;2023-08-24T06:11:59;6.97;;;4.95;;
12758;SDS011;20944;47.048;15.390;2023-08-24T06:14:27;7.32;;;5.78;;
12758;SDS011;20944;47.048;15.390;2023-08-24T06:16:57;7.93;;;6.30;;
12758;SDS011;20944;47.048;15.390;2023-08-24T06:19:26;9.25;;;5.88;;
12758;SDS011;20944;47.048;15.390;2023-08-24T06:21:54;7.00;;;5.38;;
12758;SDS011;20944;47.048;15.390;2023-08-24T06:24:22;6.32;;;5.63;;
12758;SDS011;20944;47.048;15.390;2023-08-24T06:26:51;5.95;;;5.35;;
12758;SDS011;20944;47.048;15.390;2023-08-24T06:29:19;6.50;;;5.75;;
12758;SDS011;20944;47.048;15.390;2023-08-24T06:31:48;7.30;;;5.97;;
12758;SDS011;20944;47.048;15.390;2023-08-24T06:34:17;10.32;;;5.78;;
12758;SDS011;20944;47.048;15.390;2023-08-24T06:36:46;6.97;;;5.57;;
12758;SDS011;20944;47.048;15.390;2023-08-24T06:39:14;6.47;;;5.88;;
12758;SDS011;20944;47.048;15.390;2023-08-24T06:41:43;7.00;;;5.80;;
12758;SDS011;20944;47.048;15.390;2023-08-24T06:44:11;11.70;;;5.78;;
12758;SDS011;20944;47.048;15.390;2023-08-24T06:46:39;7.32;;;5.93;;
12758;SDS011;20944;47.048;15.390;2023-08-24T06:49:08;8.38;;;5.47;;
12758;SDS011;20944;47.048;15.390;2023-08-24T06:51:37;6.80;;;5.72;;
12758;SDS011;20944;47.048;15.390;2023-08-24T06:54:05;6.70;;;4.80;;
12758;SDS011;20944;47.048;15.390;2023-08-24T06:56:34;5.68;;;5.07;;
12758;SDS011;20944;47.048;15.390;2023-08-24T06:59:02;5.63;;;4.50;;
12758;SDS011;20944;47.048;15.390;2023-08-24T07:01:32;6.47;;;5.13;;
12758;SDS011;20944;47.048;15.390;2023-08-24T07:04:00;8.07;;;4.63;;
12758;SDS011;20944;47.048;15.390;2023-08-24T07:06:29;5.50;;;4.78;;
12758;SDS011;20944;47.048;15.390;2023-08-24T07:08:59;9.30;;;5.25;;
12758;SDS011;20944;47.048;15.390;2023-08-24T07:11:32;6.28;;;5.68;;
12758;SDS011;20944;47.048;15.390;2023-08-24T07:14:01;5.53;;;4.78;;
12758;SDS011;20944;47.048;15.390;2023-08-24T07:16:29;12.32;;;5.00;;
12758;SDS011;20944;47.048;15.390;2023-08-24T07:18:57;5.82;;;4.70;;
12758;SDS011;20944;47.048;15.390;2023-08-24T07:21:26;5.28;;;4.78;;
12758;SDS011;20944;47.048;15.390;2023-08-24T07:23:54;5.97;;;4.82;;
12758;SDS011;20944;47.048;15.390;2023-08-24T07:26:25;6.03;;;4.68;;
12758;SDS011;20944;47.048;15.390;2023-08-24T07:28:53;7.65;;;4.35;;
12758;SDS011;20944;47.048;15.390;2023-08-24T07:31:22;9.02;;;4.50;;
12758;SDS011;20944;47.048;15.390;2023-08-24T07:33:50;6.38;;;4.40;;
12758;SDS011;20944;47.048;15.390;2023-08-24T07:36:18;5.95;;;5.32;;
12758;SDS011;20944;47.048;15.390;2023-08-24T07:38:46;8.05;;;4.32;;
12758;SDS011;20944;47.048;15.390;2023-08-24T07:41:15;4.35;;;3.97;;
12758;SDS011;20944;47.048;15.390;2023-08-24T07:43:46;5.47;;;4.20;;
12758;SDS011;20944;47.048;15.390;2023-08-24T07:46:14;5.57;;;4.32;;
12758;SDS011;20944;47.048;15.390;2023-08-24T07:48:43;5.53;;;4.57;;
12758;SDS011;20944;47.048;15.390;2023-08-24T07:51:11;4.50;;;4.10;;
12758;SDS011;20944;47.048;15.390;2023-08-24T07:53:39;4.03;;;3.63;;
12758;SDS011;20944;47.048;15.390;2023-08-24T07:56:07;6.68;;;4.60;;
12758;SDS011;20944;47.048;15.390;2023-08-24T07:58:35;4.85;;;4.35;;
12758;SDS011;20944;47.048;15.390;2023-08-24T08:01:05;5.90;;;4.35;;
12758;SDS011;20944;47.048;15.390;2023-08-24T08:03:33;4.60;;;4.25;;
12758;SDS011;20944;47.048;15.390;2023-08-24T08:06:02;4.50;;;4.10;;
12758;SDS011;20944;47.048;15.390;2023-08-24T08:08:31;5.07;;;4.53;;
12758;SDS011;20944;47.048;15.390;2023-08-24T08:11:00;4.78;;;4.18;;
12758;SDS011;20944;47.048;15.390;2023-08-24T08:13:29;4.78;;;4.15;;
12758;SDS011;20944;47.048;15.390;2023-08-24T08:16:01;4.90;;;4.50;;
12758;SDS011;20944;47.048;15.390;2023-08-24T08:18:32;4.43;;;4.13;;
12758;SDS011;20944;47.048;15.390;2023-08-24T08:21:01;5.82;;;4.50;;
12758;SDS011;20944;47.048;15.390;2023-08-24T08:23:36;5.20;;;4.18;;
12758;SDS011;20944;47.048;15.390;2023-08-24T08:26:04;5.93;;;4.85;;
12758;SDS011;20944;47.048;15.390;2023-08-24T08:28:32;4.97;;;4.57;;
12758;SDS011;20944;47.048;15.390;2023-08-24T08:31:01;4.80;;;4.22;;
12758;SDS011;20944;47.048;15.390;2023-08-24T08:33:30;5.97;;;4.70;;
12758;SDS011;20944;47.048;15.390;2023-08-24T08:35:59;5.20;;;4.70;;
12758;SDS011;20944;47.048;15.390;2023-08-24T08:38:28;6.32;;;4.93;;
12758;SDS011;20944;47.048;15.390;2023-08-24T08:40:56;4.55;;;4.13;;
12758;SDS011;20944;47.048;15.390;2023-08-24T08:43:30;5.72;;;4.72;;
12758;SDS011;20944;47.048;15.390;2023-08-24T08:45:59;5.32;;;4.82;;
12758;SDS011;20944;47.048;15.390;2023-08-24T08:48:28;5.32;;;4.82;;
12758;SDS011;20944;47.048;15.390;2023-08-24T08:51:00;7.38;;;4.65;;
12758;SDS011;20944;47.048;15.390;2023-08-24T08:53:29;5.72;;;5.13;;
12758;SDS011;20944;47.048;15.390;2023-08-24T08:55:57;5.32;;;4.88;;
12758;SDS011;20944;47.048;15.390;2023-08-24T08:58:30;4.72;;;4.28;;
12758;SDS011;20944;47.048;15.390;2023-08-24T09:00:59;7.18;;;5.18;;
12758;SDS011;20944;47.048;15.390;2023-08-24T09:03:31;5.88;;;5.38;;
12758;SDS011;20944;47.048;15.390;2023-08-24T09:06:01;9.00;;;4.80;;
12758;SDS011;20944;47.048;15.390;2023-08-24T09:08:29;7.13;;;4.95;;
12758;SDS011;20944;47.048;15.390;2023-08-24T09:10:59;5.07;;;4.57;;
12758;SDS011;20944;47.048;15.390;2023-08-24T09:13:27;5.95;;;4.63;;
12758;SDS011;20944;47.048;15.390;2023-08-24T09:16:02;5.78;;;5.28;;
12758;SDS011;20944;47.048;15.390;2023-08-24T09:18:36;5.68;;;5.07;;
12758;SDS011;20944;47.048;15.390;2023-08-24T09:21:09;5.00;;;4.60;;
12758;SDS011;20944;47.048;15.390;2023-08-24T09:23:38;6.18;;;5.07;;
12758;SDS011;20944;47.048;15.390;2023-08-24T09:26:11;5.10;;;4.53;;
12758;SDS011;20944;47.048;15.390;2023-08-24T09:28:42;7.03;;;4.88;;
12758;SDS011;20944;47.048;15.390;2023-08-24T09:31:11;5.40;;;4.75;;
12758;SDS011;20944;47.048;15.390;2023-08-24T09:33:42;4.95;;;4.47;;
12758;SDS011;20944;47.048;15.390;2023-08-24T09:36:14;5.80;;;5.13;;
12758;SDS011;20944;47.048;15.390;2023-08-24T09:38:46;7.15;;;4.85;;
12758;SDS011;20944;47.048;15.390;2023-08-24T09:41:16;4.53;;;4.10;;
12758;SDS011;20944;47.048;15.390;2023-08-24T09:43:44;4.88;;;4.38;;
12758;SDS011;20944;47.048;15.390;2023-08-24T09:46:12;8.05;;;4.40;;
12758;SDS011;20944;47.048;15.390;2023-08-24T09:48:52;5.10;;;4.70;;
12758;SDS011;20944;47.048;15.390;2023-08-24T09:51:24;4.82;;;4.43;;
12758;SDS011;20944;47.048;15.390;2023-08-24T09:53:56;5.18;;;4.68;;
12758;SDS011;20944;47.048;15.390;2023-08-24T09:56:26;6.97;;;5.03;;
12758;SDS011;20944;47.048;15.390;2023-08-24T09:58:56;4.53;;;4.10;;
12758;SDS011;20944;47.048;15.390;2023-08-24T10:01:33;5.07;;;4.57;;
12758;SDS011;20944;47.048;15.390;2023-08-24T10:04:03;4.63;;;4.18;;
12758;SDS011;20944;47.048;15.390;2023-08-24T10:06:35;5.25;;;4.32;;
12758;SDS011;20944;47.048;15.390;2023-08-24T10:09:05;5.00;;;4.50;;
12758;SDS011;20944;47.048;15.390;2023-08-24T10:11:43;4.32;;;3.97;;
12758;SDS011;20944;47.048;15.390;2023-08-24T10:14:19;4.72;;;4.35;;
12758;SDS011;20944;47.048;15.390;2023-08-24T10:16:52;4.38;;;3.97;;
12758;SDS011;20944;47.048;15.390;2023-08-24T10:19:21;4.78;;;4.47;;
12758;SDS011;20944;47.048;15.390;2023-08-24T10:21:52;4.53;;;4.13;;
12758;SDS011;20944;47.048;15.390;2023-08-24T10:24:23;4.57;;;4.28;;
12758;SDS011;20944;47.048;15.390;2023-08-24T10:26:52;5.03;;;4.15;;
12758;SDS011;20944;47.048;15.390;2023-08-24T10:29:22;4.75;;;4.35;;
12758;SDS011;20944;47.048;15.390;2023-08-24T10:31:51;4.95;;;3.80;;
12758;SDS011;20944;47.048;15.390;2023-08-24T10:34:20;4.63;;;4.22;;
12758;SDS011;20944;47.048;15.390;2023-08-24T10:36:49;4.75;;;4.03;;
12758;SDS011;20944;47.048;15.390;2023-08-24T10:39:19;4.35;;;3.92;;
12758;SDS011;20944;47.048;15.390;2023-08-24T10:41:55;4.32;;;4.03;;
12758;SDS011;20944;47.048;15.390;2023-08-24T10:44:24;4.55;;;4.22;;
12758;SDS011;20944;47.048;15.390;2023-08-24T10:47:13;5.65;;;4.20;;
12758;SDS011;20944;47.048;15.390;2023-08-24T10:49:42;4.45;;;4.15;;
12758;SDS011;20944;47.048;15.390;2023-08-24T10:52:21;3.95;;;3.65;;
12758;SDS011;20944;47.048;15.390;2023-08-24T10:54:52;4.30;;;3.95;;
12758;SDS011;20944;47.048;15.390;2023-08-24T10:57:22;5.28;;;3.67;;
12758;SDS011;20944;47.048;15.390;2023-08-24T10:59:57;4.47;;;4.07;;
12758;SDS011;20944;47.048;15.390;2023-08-24T11:02:27;4.88;;;4.53;;
12758;SDS011;20944;47.048;15.390;2023-08-24T11:05:05;4.43;;;4.03;;
12758;SDS011;20944;47.048;15.390;2023-08-24T11:07:50;4.65;;;4.13;;
12758;SDS011;20944;47.048;15.390;2023-08-24T11:10:21;5.53;;;4.78;;
12758;SDS011;20944;47.048;15.390;2023-08-24T11:13:06;4.78;;;4.38;;
12758;SDS011;20944;47.048;15.390;2023-08-24T11:15:38;8.65;;;4.72;;
12758;SDS011;20944;47.048;15.390;2023-08-24T11:18:15;5.75;;;3.92;;
12758;SDS011;20944;47.048;15.390;2023-08-24T11:20:50;4.32;;;3.92;;
12758;SDS011;20944;47.048;15.390;2023-08-24T11:23:19;3.92;;;3.63;;
12758;SDS011;20944;47.048;15.390;2023-08-24T11:25:50;4.93;;;4.00;;
12758;SDS011;20944;47.048;15.390;2023-08-24T11:28:23;4.68;;;4.32;;
12758;SDS011;20944;47.048;15.390;2023-08-24T11:30:52;5.53;;;4.30;;
12758;SDS011;20944;47.048;15.390;2023-08-24T11:33:27;4.90;;;4.50;;
12758;SDS011;20944;47.048;15.390;2023-08-24T11:35:57;4.95;;;4.40;;
12758;SDS011;20944;47.048;15.390;2023-08-24T11:38:34;4.97;;;4.35;;
12758;SDS011;20944;47.048;15.390;2023-08-24T11:41:12;5.00;;;4.50;;
12758;SDS011;20944;47.048;15.390;2023-08-24T11:43:41;4.72;;;4.43;;
12758;SDS011;20944;47.048;15.390;2023-08-24T11:46:10;6.43;;;4.30;;
12758;SDS011;20944;47.048;15.390;2023-08-24T11:48:38;6.50;;;4.70;;
12758;SDS011;20944;47.048;15.390;2023-08-24T11:51:08;4.90;;;4.40;;
12758;SDS011;20944;47.048;15.390;2023-08-24T11:53:37;5.68;;;5.00;;
12758;SDS011;20944;47.048;15.390;2023-08-24T11:56:07;5.05;;;4.55;;
12758;SDS011;20944;47.048;15.390;2023-08-24T11:58:38;4.78;;;4.38;;
12758;SDS011;20944;47.048;15.390;2023-08-24T12:01:07;6.15;;;5.00;;
12758;SDS011;20944;47.048;15.390;2023-08-24T12:03:36;4.72;;;4.32;;
12758;SDS011;20944;47.048;15.390;2023-08-24T12:06:09;5.28;;;4.38;;
12758;SDS011;20944;47.048;15.390;2023-08-24T12:08:39;4.95;;;4.55;;
12758;SDS011;20944;47.048;15.390;2023-08-24T12:11:12;5.13;;;4.63;;
12758;SDS011;20944;47.048;15.390;2023-08-24T12:13:45;4.72;;;4.15;;
12758;SDS011;20944;47.048;15.390;2023-08-24T12:16:16;5.75;;;5.25;;
12758;SDS011;20944;47.048;15.390;2023-08-24T12:18:49;4.85;;;4.38;;
12758;SDS011;20944;47.048;15.390;2023-08-24T12:21:19;4.97;;;4.47;;
12758;SDS011;20944;47.048;15.390;2023-08-24T12:23:57;5.13;;;4.60;;
12758;SDS011;20944;47.048;15.390;2023-08-24T12:26:26;5.00;;;4.35;;
12758;SDS011;20944;47.048;15.390;2023-08-24T12:28:59;5.43;;;5.03;;
12758;SDS011;20944;47.048;15.390;2023-08-24T12:31:29;5.32;;;4.53;;
12758;SDS011;20944;47.048;15.390;2023-08-24T12:34:01;4.32;;;3.97;;
12758;SDS011;20944;47.048;15.390;2023-08-24T12:36:31;6.60;;;4.82;;
12758;SDS011;20944;47.048;15.390;2023-08-24T12:39:03;4.63;;;4.22;;
12758;SDS011;20944;47.048;15.390;2023-08-24T12:41:32;4.78;;;4.32;;
12758;SDS011;20944;47.048;15.390;2023-08-24T12:44:02;5.65;;;5.15;;
12758;SDS011;20944;47.048;15.390;2023-08-24T12:46:32;5.40;;;4.93;;
12758;SDS011;20944;47.048;15.390;2023-08-24T12:49:01;7.57;;;5.13;;
12758;SDS011;20944;47.048;15.390;2023-08-24T12:51:30;5.75;;;4.80;;
12758;SDS011;20944;47.048;15.390;2023-08-24T12:53:58;5.30;;;4.82;;
12758;SDS011;20944;47.048;15.390;2023-08-24T12:56:27;7.15;;;4.45;;
12758;SDS011;20944;47.048;15.390;2023-08-24T12:58:55;5.95;;;5.35;;
12758;SDS011;20944;47.048;15.390;2023-08-24T13:01:25;5.75;;;5.10;;
12758;SDS011;20944;47.048;15.390;2023-08-24T13:03:53;5.25;;;4.75;;
12758;SDS011;20944;47.048;15.390;2023-08-24T13:06:21;5.05;;;4.57;;
12758;SDS011;20944;47.048;15.390;2023-08-24T13:08:50;5.35;;;4.85;;
12758;SDS011;20944;47.048;15.390;2023-08-24T13:11:20;5.70;;;5.28;;
12758;SDS011;20944;47.048;15.390;2023-08-24T13:13:49;4.85;;;4.45;;
12758;SDS011;20944;47.048;15.390;2023-08-24T13:16:17;6.75;;;4.85;;
12758;SDS011;20944;47.048;15.390;2023-08-24T13:18:47;5.95;;;5.45;;
12758;SDS011;20944;47.048;15.390;2023-08-24T13:21:15;6.65;;;5.70;;
12758;SDS011;20944;47.048;15.390;2023-08-24T13:23:45;6.97;;;5.63;;
12758;SDS011;20944;47.048;15.390;2023-08-24T13:26:17;5.75;;;5.22;;
12758;SDS011;20944;47.048;15.390;2023-08-24T13:28:46;5.22;;;4.70;;
12758;SDS011;20944;47.048;15.390;2023-08-24T13:31:15;5.53;;;4.55;;
12758;SDS011;20944;47.048;15.390;2023-08-24T13:33:44;5.80;;;5.20;;
12758;SDS011;20944;47.048;15.390;2023-08-24T13:36:14;5.15;;;4.65;;
12758;SDS011;20944;47.048;15.390;2023-08-24T13:38:43;7.10;;;5.40;;
12758;SDS011;20944;47.048;15.390;2023-08-24T13:41:12;6.15;;;4.95;;
12758;SDS011;20944;47.048;15.390;2023-08-24T13:43:40;5.50;;;4.53;;
12758;SDS011;20944;47.048;15.390;2023-08-24T13:46:08;5.05;;;4.65;;
12758;SDS011;20944;47.048;15.390;2023-08-24T13:48:37;5.22;;;4.82;;
12758;SDS011;20944;47.048;15.390;2023-08-24T13:51:05;6.78;;;4.97;;
12758;SDS011;20944;47.048;15.390;2023-08-24T13:53:36;5.95;;;5.35;;
12758;SDS011;20944;47.048;15.390;2023-08-24T13:56:04;6.25;;;5.13;;
12758;SDS011;20944;47.048;15.390;2023-08-24T13:58:33;6.22;;;5.22;;
12758;SDS011;20944;47.048;15.390;2023-08-24T14:01:02;6.53;;;5.50;;
12758;SDS011;20944;47.048;15.390;2023-08-24T14:03:30;5.53;;;5.03;;
12758;SDS011;20944;47.048;15.390;2023-08-24T14:06:00;8.23;;;5.35;;
12758;SDS011;20944;47.048;15.390;2023-08-24T14:08:28;7.55;;;5.13;;
12758;SDS011;20944;47.048;15.390;2023-08-24T14:10:58;6.15;;;5.13;;
12758;SDS011;20944;47.048;15.390;2023-08-24T14:13:26;5.45;;;4.97;;
12758;SDS011;20944;47.048;15.390;2023-08-24T14:15:55;6.20;;;5.53;;
12758;SDS011;20944;47.048;15.390;2023-08-24T14:18:23;5.45;;;4.95;;
12758;SDS011;20944;47.048;15.390;2023-08-24T14:20:52;6.00;;;5.45;;
12758;SDS011;20944;47.048;15.390;2023-08-24T14:23:20;9.75;;;6.38;;
12758;SDS011;20944;47.048;15.390;2023-08-24T14:25:49;5.63;;;5.10;;
12758;SDS011;20944;47.048;15.390;2023-08-24T14:28:18;6.85;;;5.65;;
12758;SDS011;20944;47.048;15.390;2023-08-24T14:30:49;6.00;;;5.40;;
12758;SDS011;20944;47.048;15.390;2023-08-24T14:33:17;5.53;;;5.03;;
12758;SDS011;20944;47.048;15.390;2023-08-24T14:35:50;5.63;;;5.22;;
12758;SDS011;20944;47.048;15.390;2023-08-24T14:38:19;9.45;;;6.47;;
12758;SDS011;20944;47.048;15.390;2023-08-24T14:40:47;6.13;;;5.63;;
12758;SDS011;20944;47.048;15.390;2023-08-24T14:43:15;6.88;;;6.00;;
12758;SDS011;20944;47.048;15.390;2023-08-24T14:45:45;6.22;;;5.53;;
12758;SDS011;20944;47.048;15.390;2023-08-24T14:48:13;7.35;;;5.97;;